Foots Cray, United Kingdom
Current Conditions -  °F | °C
As of 1:20 PM on Saturday 20 Dec 2014 (Local Time) from EGKB Reporting Station
Scattered Clouds Scattered Clouds  
Wind Chill: 41°   Ceiling: Unl
Heat Index: 46°   Visibility: 6mi
Dew Point: 36°   Wind: 13mph
Humidity: 66%   Direction: 290°WNW
Pressure: 30.3"   Gusts: NA
Location:  51.38°N, 0.07°E
Report Text: EGKB 201320Z 29011KT 250V320 9999 SCT030 08/02 Q1026
Loading
Personal Weather Stations






























Interactive Weather Map New forecast layout! Learn more

10-Day Weather Forecast

Advertisements
Track Severe Weather on mobile